Time;durP1;ratioP1;P1;durP2;ratioP2;P2;SDS_P1;SDS_P2;PMS_P1;PMS_P2;Temp;Humidity;BMP_temperature;BMP_pressure;BME280_temperature;BME280_humidity;BME280_pressure;Samples;Min_cycle;Max_cycle;Signal;HPM_P1;HPM_P2
2021/04/11 00:01:13;;;;;;;4.30;1.65;;;0.40;99.90;;;;;;5057692;28;20186;-42
2021/04/11 00:03:39;;;;;;;9.10;1.85;;;0.40;99.90;;;;;;5062282;28;20186;-43
2021/04/11 00:06:06;;;;;;;14.60;2.00;;;0.40;99.90;;;;;;5052092;28;20185;-43
2021/04/11 00:08:32;;;;;;;10.38;1.85;;;0.30;99.90;;;;;;5059593;28;20205;-42
2021/04/11 00:11:00;;;;;;;11.80;1.70;;;0.30;99.90;;;;;;5073872;28;20194;-42
2021/04/11 00:13:31;;;;;;;15.90;1.95;;;0.30;99.90;;;;;;5069915;28;20635;-42
2021/04/11 00:15:58;;;;;;;12.43;1.80;;;0.30;99.90;;;;;;5055994;28;20174;-42
2021/04/11 00:18:24;;;;;;;3.72;1.42;;;0.30;99.90;;;;;;5061385;28;20180;-43
2021/04/11 00:20:50;;;;;;;11.25;1.77;;;0.30;99.90;;;;;;5071294;28;20486;-42
2021/04/11 00:23:17;;;;;;;9.68;2.03;;;0.30;99.90;;;;;;5071617;28;20179;-42
2021/04/11 00:25:44;;;;;;;9.77;2.63;;;0.20;99.90;;;;;;5059172;28;20170;-42
2021/04/11 00:28:11;;;;;;;13.32;5.55;;;0.20;99.90;;;;;;5058783;28;20236;-42
2021/04/11 00:30:37;;;;;;;16.50;1.88;;;0.30;99.90;;;;;;5074860;28;20202;-42
2021/04/11 00:33:05;;;;;;;17.77;4.03;;;0.30;99.90;;;;;;5073225;28;20200;-42
2021/04/11 00:35:31;;;;;;;21.48;4.90;;;0.40;99.90;;;;;;5068134;28;20182;-41
2021/04/11 00:37:58;;;;;;;14.63;4.25;;;0.40;99.90;;;;;;5075126;28;20186;-42
2021/04/11 00:40:28;;;;;;;8.52;3.15;;;0.40;99.90;;;;;;5064431;28;20178;-42
2021/04/11 00:43:04;;;;;;;33.33;3.22;;;0.40;99.90;;;;;;5069491;28;20654;-42
2021/04/11 00:45:41;;;;;;;20.20;6.20;;;0.30;99.90;;;;;;5060152;28;20173;-41
2021/04/11 00:48:07;;;;;;;18.38;4.60;;;0.30;99.90;;;;;;5068343;28;20541;-42
2021/04/11 00:50:34;;;;;;;11.30;1.88;;;0.30;99.90;;;;;;5072056;28;20185;-41
2021/04/11 00:53:00;;;;;;;13.65;3.90;;;0.30;99.90;;;;;;5063487;28;20665;-42
2021/04/11 00:55:26;;;;;;;11.85;4.70;;;0.30;99.90;;;;;;5056348;28;20535;-41
2021/04/11 00:57:53;;;;;;;20.42;4.10;;;0.30;99.90;;;;;;5056957;28;20214;-42
2021/04/11 01:00:22;;;;;;;20.33;5.88;;;0.30;99.90;;;;;;5071808;28;20186;-42
2021/04/11 01:02:48;;;;;;;17.40;8.35;;;0.30;99.90;;;;;;5082807;28;20198;-42
2021/04/11 01:05:16;;;;;;;20.13;2.97;;;0.30;99.90;;;;;;5074569;28;20181;-42
2021/04/11 01:07:45;;;;;;;15.43;2.55;;;0.20;99.90;;;;;;5065894;28;20224;-42
2021/04/11 01:10:12;;;;;;;9.77;2.38;;;0.20;99.90;;;;;;5048405;28;20182;-42
2021/04/11 01:12:38;;;;;;;14.00;1.58;;;0.10;99.90;;;;;;5043936;28;20174;-41
2021/04/11 01:15:12;;;;;;;14.50;1.83;;;0.10;99.90;;;;;;5070618;28;20181;-42
2021/04/11 01:17:38;;;;;;;19.98;2.75;;;0.10;99.90;;;;;;5063361;28;20608;-42
2021/04/11 01:20:06;;;;;;;8.13;3.08;;;0.10;99.90;;;;;;5054031;28;20537;-42
2021/04/11 01:22:54;;;;;;;11.27;1.80;;;0.10;99.90;;;;;;5060966;28;20201;-42
2021/04/11 01:25:24;;;;;;;20.65;1.88;;;0.10;99.90;;;;;;5062270;28;20170;-41
2021/04/11 01:27:50;;;;;;;10.60;1.90;;;0.10;99.90;;;;;;5048104;28;20271;-41
2021/04/11 01:30:32;;;;;;;19.45;1.88;;;0.10;99.90;;;;;;5052099;28;20213;-42
2021/04/11 01:33:00;;;;;;;19.98;3.47;;;0.10;99.90;;;;;;5055170;28;20177;-41
2021/04/11 01:35:27;;;;;;;10.35;3.13;;;0.20;99.90;;;;;;5086266;28;20189;-41
2021/04/11 01:37:53;;;;;;;13.80;1.80;;;0.20;99.90;;;;;;5072632;28;20181;-41
2021/04/11 01:40:43;;;;;;;12.48;2.47;;;0.30;99.90;;;;;;5065032;28;20174;-42
2021/04/11 01:43:09;;;;;;;20.52;5.38;;;0.40;99.90;;;;;;5054839;28;20688;-41
2021/04/11 01:45:36;;;;;;;12.23;2.35;;;0.40;99.90;;;;;;5027263;28;20550;-42
2021/04/11 01:48:02;;;;;;;43.35;16.98;;;0.30;99.90;;;;;;5077901;28;20221;-42
2021/04/11 01:50:29;;;;;;;21.00;4.72;;;0.30;99.90;;;;;;5071543;28;20338;-42
2021/04/11 01:52:56;;;;;;;15.85;1.58;;;0.20;99.90;;;;;;5067584;28;20173;-42
2021/04/11 01:55:24;;;;;;;11.82;2.42;;;0.20;99.90;;;;;;5069153;28;20186;-42
2021/04/11 01:57:54;;;;;;;13.60;5.57;;;0.30;99.90;;;;;;5072271;28;20562;-42
2021/04/11 02:00:26;;;;;;;11.95;2.30;;;0.30;99.90;;;;;;5070801;28;20198;-42
2021/04/11 02:02:56;;;;;;;12.73;2.08;;;0.30;99.90;;;;;;5064113;28;20193;-41
2021/04/11 02:05:23;;;;;;;9.55;1.90;;;0.30;99.90;;;;;;5081225;28;20165;-42
2021/04/11 02:07:51;;;;;;;4.63;2.05;;;0.40;99.90;;;;;;5070178;28;20566;-41
2021/04/11 02:10:18;;;;;;;17.23;2.58;;;0.30;99.90;;;;;;5063760;28;20178;-42
2021/04/11 02:12:45;;;;;;;11.55;1.58;;;0.30;99.90;;;;;;5069370;28;20615;-42
2021/04/11 02:15:22;;;;;;;13.23;2.95;;;0.30;99.90;;;;;;5070698;28;20201;-42
2021/04/11 02:17:49;;;;;;;10.27;4.53;;;0.30;99.90;;;;;;5069268;28;20162;-42
2021/04/11 02:20:15;;;;;;;51.08;20.33;;;0.30;99.90;;;;;;5053536;28;20570;-42
2021/04/11 02:22:41;;;;;;;19.50;9.32;;;0.30;99.90;;;;;;5065067;28;20201;-41
2021/04/11 02:25:09;;;;;;;53.28;24.10;;;0.30;99.90;;;;;;5041242;28;20666;-42
2021/04/11 02:27:35;;;;;;;26.70;11.52;;;0.30;99.90;;;;;;5053511;28;20215;-41
2021/04/11 02:30:05;;;;;;;59.70;25.52;;;0.30;99.90;;;;;;5063343;28;20184;-41
2021/04/11 02:32:31;;;;;;;38.55;14.98;;;0.30;99.90;;;;;;5068037;28;20166;-41
2021/04/11 02:35:01;;;;;;;18.70;12.02;;;0.40;99.90;;;;;;5080995;28;20670;-41
2021/04/11 02:37:29;;;;;;;43.05;14.90;;;0.30;99.90;;;;;;5071260;28;20180;-42
2021/04/11 02:39:56;;;;;;;15.00;6.70;;;0.40;99.90;;;;;;5053487;28;20174;-41
2021/04/11 02:42:25;;;;;;;22.27;11.15;;;0.40;99.90;;;;;;5063268;28;20549;-42
2021/04/11 02:44:52;;;;;;;25.52;9.80;;;0.50;99.90;;;;;;5053454;28;20185;-42
2021/04/11 02:47:18;;;;;;;93.97;42.03;;;0.50;99.90;;;;;;5052562;28;20201;-41
2021/04/11 02:49:44;;;;;;;64.68;34.55;;;0.50;99.90;;;;;;5053536;28;20167;-42
2021/04/11 02:52:31;;;;;;;71.82;37.10;;;0.50;99.90;;;;;;5069651;28;20166;-42
2021/04/11 02:54:58;;;;;;;53.60;22.48;;;0.60;99.90;;;;;;5059543;28;20173;-42
2021/04/11 02:57:24;;;;;;;63.67;24.05;;;0.70;99.90;;;;;;5059305;28;20174;-41
2021/04/11 02:59:51;;;;;;;58.03;32.70;;;0.70;99.90;;;;;;5081276;28;20538;-41
2021/04/11 03:02:17;;;;;;;86.63;36.63;;;0.80;99.90;;;;;;5070538;28;20528;-41
2021/04/11 03:04:43;;;;;;;107.47;43.70;;;0.90;99.90;;;;;;5051967;28;20185;-42
2021/04/11 03:07:30;;;;;;;103.18;38.60;;;0.90;99.90;;;;;;5054088;28;20635;-42
2021/04/11 03:10:09;;;;;;;79.97;32.30;;;0.90;99.90;;;;;;5069408;28;20170;-41
2021/04/11 03:12:36;;;;;;;59.22;21.90;;;0.90;99.90;;;;;;5073708;28;20523;-41
2021/04/11 03:15:03;;;;;;;129.95;47.17;;;0.90;99.90;;;;;;5065689;28;20185;-42
2021/04/11 03:17:29;;;;;;;83.90;43.58;;;0.90;99.90;;;;;;5056574;28;20167;-42
2021/04/11 03:20:00;;;;;;;55.50;32.10;;;0.90;99.90;;;;;;5054663;28;20182;-41
2021/04/11 03:22:26;;;;;;;18.73;8.45;;;0.90;99.90;;;;;;5046132;28;20170;-41
2021/04/11 03:24:53;;;;;;;51.70;29.80;;;0.90;99.90;;;;;;5067636;28;20551;-41
2021/04/11 03:27:37;;;;;;;26.83;14.20;;;0.90;99.90;;;;;;5073645;28;20194;-41
2021/04/11 03:30:08;;;;;;;16.60;9.98;;;0.90;99.90;;;;;;5055554;28;20173;-41
2021/04/11 03:32:38;;;;;;;92.43;42.83;;;0.90;99.90;;;;;;5069138;28;20166;-42
2021/04/11 03:35:06;;;;;;;47.33;21.58;;;0.90;99.90;;;;;;5062453;28;20185;-41
2021/04/11 03:37:32;;;;;;;37.92;21.95;;;0.80;99.90;;;;;;5075227;28;20166;-42
2021/04/11 03:39:59;;;;;;;19.45;8.00;;;0.80;99.90;;;;;;5067927;28;20182;-42
2021/04/11 03:42:26;;;;;;;28.65;14.73;;;0.80;99.90;;;;;;5068763;28;20185;-41
2021/04/11 03:44:53;;;;;;;44.47;20.52;;;0.70;99.90;;;;;;5066669;28;20171;-41
2021/04/11 03:47:22;;;;;;;11.48;2.60;;;0.70;99.90;;;;;;5072545;28;20162;-41
2021/04/11 03:49:57;;;;;;;9.90;5.85;;;0.70;99.90;;;;;;5053720;28;20171;-41
2021/04/11 03:52:28;;;;;;;25.15;10.20;;;0.70;99.90;;;;;;5036890;28;20843;-42
2021/04/11 03:54:54;;;;;;;21.90;10.07;;;0.70;99.90;;;;;;5052282;28;20476;-42
2021/04/11 03:57:24;;;;;;;37.60;23.75;;;0.70;99.90;;;;;;5076497;28;20542;-41
2021/04/11 04:00:07;;;;;;;41.47;21.63;;;0.70;99.90;;;;;;5068243;28;20215;-42
2021/04/11 04:02:37;;;;;;;99.65;39.35;;;0.70;99.90;;;;;;5054427;28;20213;-42
2021/04/11 04:05:05;;;;;;;34.20;18.95;;;0.60;99.90;;;;;;5042121;28;20522;-41
2021/04/11 04:07:36;;;;;;;47.97;26.35;;;0.60;99.90;;;;;;5072918;28;20219;-41
2021/04/11 04:10:04;;;;;;;21.08;3.88;;;0.50;99.90;;;;;;5037474;28;20520;-41
2021/04/11 04:12:46;;;;;;;14.40;4.88;;;0.50;99.90;;;;;;5077526;28;20545;-41
2021/04/11 04:15:23;;;;;;;26.38;9.20;;;0.50;99.90;;;;;;5064812;28;20195;-41
2021/04/11 04:17:52;;;;;;;9.82;1.80;;;0.40;99.90;;;;;;5085101;28;20158;-41
2021/04/11 04:20:24;;;;;;;69.05;28.58;;;0.40;99.90;;;;;;5069872;28;20279;-41
2021/04/11 04:22:58;;;;;;;136.77;49.67;;;0.40;99.90;;;;;;5070256;28;20638;-41
2021/04/11 04:25:46;;;;;;;29.45;20.35;;;0.40;99.90;;;;;;5069456;28;20748;-41
2021/04/11 04:28:39;;;;;;;41.70;25.48;;;0.40;99.90;;;;;;5070149;28;20206;-41
2021/04/11 04:31:29;;;;;;;69.55;27.17;;;0.40;99.90;;;;;;5063365;28;20228;-41
2021/04/11 04:34:19;;;;;;;33.85;22.23;;;0.40;99.90;;;;;;5066100;28;20171;-41
2021/04/11 04:36:54;;;;;;;16.73;6.63;;;0.40;99.90;;;;;;5053723;28;20504;-41
2021/04/11 04:39:42;;;;;;;40.60;23.48;;;0.50;99.90;;;;;;5068206;28;20532;-41
2021/04/11 04:42:31;;;;;;;11.25;2.10;;;0.50;99.90;;;;;;5061722;28;20194;-41
2021/04/11 04:45:15;;;;;;;5.57;1.50;;;0.60;99.90;;;;;;5066173;28;20678;-42
2021/04/11 04:48:07;;;;;;;4.70;1.35;;;0.60;99.90;;;;;;5062314;28;20678;-41
2021/04/11 04:50:36;;;;;;;12.07;2.63;;;0.70;99.90;;;;;;5061311;28;20171;-42
2021/04/11 04:53:05;;;;;;;8.93;2.65;;;0.70;99.90;;;;;;5082344;28;20178;-42
2021/04/11 04:55:32;;;;;;;10.38;2.70;;;0.70;99.90;;;;;;5066408;28;20178;-41
2021/04/11 04:58:03;;;;;;;11.82;1.77;;;0.70;99.90;;;;;;5071645;28;20658;-41
2021/04/11 05:00:32;;;;;;;15.18;2.17;;;0.80;99.90;;;;;;5071755;28;20173;-42
2021/04/11 05:03:16;;;;;;;6.57;2.03;;;0.80;99.90;;;;;;5074749;28;20186;-41
2021/04/11 05:05:47;;;;;;;7.18;1.88;;;0.90;99.90;;;;;;5073948;28;20517;-41
2021/04/11 05:08:20;;;;;;;9.35;1.85;;;0.90;99.90;;;;;;5069873;28;20208;-41
2021/04/11 05:10:49;;;;;;;8.55;1.67;;;1.00;99.90;;;;;;5043086;28;20166;-42
2021/04/11 05:13:19;;;;;;;13.02;2.08;;;1.00;99.90;;;;;;5071710;28;20186;-41
2021/04/11 05:15:48;;;;;;;11.80;2.08;;;1.10;99.90;;;;;;5075525;28;20170;-41
2021/04/11 05:18:17;;;;;;;11.07;1.88;;;1.20;99.90;;;;;;5077435;28;20174;-41
2021/04/11 05:20:45;;;;;;;10.73;1.77;;;1.20;99.90;;;;;;5081905;28;20660;-41
2021/04/11 05:23:19;;;;;;;17.95;2.15;;;1.30;99.90;;;;;;5072904;28;20174;-41
2021/04/11 05:26:09;;;;;;;14.23;2.03;;;1.40;99.90;;;;;;5054750;28;20566;-41
2021/04/11 05:28:45;;;;;;;9.25;3.60;;;1.40;99.90;;;;;;5070971;28;20704;-41
2021/04/11 05:31:16;;;;;;;9.23;2.30;;;1.50;99.90;;;;;;5051301;28;20218;-42
2021/04/11 05:33:42;;;;;;;6.75;2.78;;;1.60;99.90;;;;;;5086458;28;20174;-41
2021/04/11 05:36:17;;;;;;;9.93;2.35;;;1.70;99.90;;;;;;5078567;28;20174;-41
2021/04/11 05:39:13;;;;;;;14.90;1.60;;;1.80;99.90;;;;;;5054571;28;20159;-42
2021/04/11 05:42:24;;;;;;;12.98;1.45;;;1.80;99.90;;;;;;5068209;28;20669;-41
2021/04/11 05:45:16;;;;;;;10.02;0.93;;;1.90;99.90;;;;;;5071342;28;20178;-41
2021/04/11 05:47:49;;;;;;;15.88;1.67;;;2.00;99.90;;;;;;5050331;28;20658;-41
2021/04/11 05:50:44;;;;;;;6.25;1.38;;;2.10;99.90;;;;;;5084543;28;20177;-41
2021/04/11 05:53:18;;;;;;;5.25;1.30;;;2.10;99.90;;;;;;5070943;28;20179;-41
2021/04/11 05:55:49;;;;;;;5.60;1.10;;;2.20;99.90;;;;;;5070972;28;20185;-42
2021/04/11 05:58:18;;;;;;;6.88;1.20;;;2.30;99.90;;;;;;5078294;28;20652;-41
2021/04/11 06:01:01;;;;;;;6.53;0.38;;;2.40;99.90;;;;;;5072355;28;20181;-41
2021/04/11 06:03:27;;;;;;;0.20;0.20;;;2.50;99.90;;;;;;5038968;28;20174;-41
2021/04/11 06:06:20;;;;;;;20.98;2.05;;;2.50;99.90;;;;;;5077499;28;20634;-41
2021/04/11 06:09:09;;;;;;;1.65;0.38;;;2.60;99.90;;;;;;5063081;28;20530;-41
2021/04/11 06:11:54;;;;;;;3.88;1.17;;;2.60;99.90;;;;;;5070482;28;20177;-41
2021/04/11 06:14:27;;;;;;;13.38;1.38;;;2.60;99.90;;;;;;5054608;28;20616;-42
2021/04/11 06:16:53;;;;;;;13.98;1.65;;;2.60;99.90;;;;;;5072154;28;20162;-42
2021/04/11 06:19:20;;;;;;;1.98;0.40;;;2.70;99.90;;;;;;5068435;28;20177;-41
2021/04/11 06:22:03;;;;;;;1.90;1.27;;;2.70;99.90;;;;;;5070189;28;20185;-41
2021/04/11 06:24:29;;;;;;;14.30;1.67;;;2.70;99.90;;;;;;5060971;28;20618;-42
2021/04/11 06:27:14;;;;;;;7.18;3.63;;;2.80;99.90;;;;;;5071518;28;20173;-41
2021/04/11 06:30:16;;;;;;;4.72;1.98;;;2.90;99.90;;;;;;5061046;28;20213;-41
2021/04/11 06:32:45;;;;;;;10.77;1.45;;;3.00;99.90;;;;;;5067876;28;20198;-41
2021/04/11 06:35:13;;;;;;;5.32;1.05;;;3.00;99.90;;;;;;5074170;28;20179;-42
2021/04/11 06:37:40;;;;;;;7.63;1.10;;;3.10;99.90;;;;;;5073705;28;20201;-41
2021/04/11 06:40:15;;;;;;;12.57;1.52;;;3.20;99.90;;;;;;5044204;28;20610;-42
2021/04/11 06:42:57;;;;;;;9.77;3.75;;;3.30;99.90;;;;;;5051278;28;20170;-41
2021/04/11 06:46:11;;;;;;;7.40;2.58;;;3.40;99.90;;;;;;5055874;28;20161;-41
2021/04/11 06:48:59;;;;;;;14.02;7.28;;;3.50;99.90;;;;;;5041628;28;20218;-41
2021/04/11 06:51:47;;;;;;;11.73;8.27;;;3.60;99.90;;;;;;5030655;28;20167;-41
2021/04/11 06:54:34;;;;;;;5.38;0.90;;;3.70;99.90;;;;;;5057003;28;20186;-41
2021/04/11 06:57:27;;;;;;;6.70;1.33;;;3.70;99.90;;;;;;5073063;28;20177;-41
2021/04/11 07:00:09;;;;;;;2.00;1.13;;;3.70;99.90;;;;;;5056414;28;20175;-41
2021/04/11 07:03:03;;;;;;;6.35;1.15;;;3.80;99.90;;;;;;5069083;28;20175;-41
2021/04/11 07:05:41;;;;;;;4.03;0.95;;;3.80;99.90;;;;;;5066173;28;20169;-42
2021/04/11 07:08:15;;;;;;;0.65;0.55;;;3.90;99.90;;;;;;5058900;28;20198;-41
2021/04/11 07:11:15;;;;;;;4.65;1.15;;;4.00;99.90;;;;;;5068185;28;20163;-41
2021/04/11 07:14:31;;;;;;;1.05;0.43;;;4.10;99.90;;;;;;5052683;28;20186;-41
2021/04/11 07:17:45;;;;;;;1.20;0.45;;;4.20;99.90;;;;;;5052633;28;20197;-41
2021/04/11 07:20:43;;;;;;;0.98;0.57;;;4.40;99.90;;;;;;5053695;28;20543;-42
2021/04/11 07:23:50;;;;;;;4.40;0.43;;;4.50;99.90;;;;;;5083228;28;20192;-41
2021/04/11 07:27:15;;;;;;;0.43;0.30;;;4.60;99.90;;;;;;5071486;28;20185;-40
2021/04/11 07:29:56;;;;;;;1.65;0.50;;;4.70;99.90;;;;;;5049616;28;20247;-42
2021/04/11 07:32:34;;;;;;;3.00;1.05;;;4.80;99.90;;;;;;5033682;28;20229;-41
2021/04/11 07:35:31;;;;;;;1.65;0.55;;;4.90;99.90;;;;;;5068231;28;20186;-42
2021/04/11 07:38:07;;;;;;;4.05;0.68;;;4.90;99.90;;;;;;5071220;28;20206;-41
2021/04/11 07:40:58;;;;;;;5.97;1.30;;;5.10;99.90;;;;;;5072255;28;20174;-41
2021/04/11 07:43:31;;;;;;;6.63;0.77;;;5.10;99.90;;;;;;5072475;28;20196;-41
2021/04/11 07:46:11;;;;;;;1.00;0.40;;;5.10;99.90;;;;;;5071170;28;20177;-41
2021/04/11 07:48:40;;;;;;;5.65;1.20;;;5.20;99.90;;;;;;5065101;28;20197;-40
2021/04/11 07:51:15;;;;;;;5.63;0.85;;;5.20;99.90;;;;;;5052557;28;20171;-41
2021/04/11 07:54:02;;;;;;;11.98;1.00;;;5.20;99.90;;;;;;5052227;28;20634;-42
2021/04/11 07:56:48;;;;;;;108.53;30.77;;;5.20;99.90;;;;;;5066480;28;20192;-42
2021/04/11 07:59:52;;;;;;;96.30;29.70;;;5.20;99.90;;;;;;5073402;28;20198;-41
2021/04/11 08:02:19;;;;;;;60.47;20.55;;;5.20;99.90;;;;;;5062080;28;20544;-42
2021/04/11 08:05:21;;;;;;;12.40;4.78;;;5.20;99.90;;;;;;5076825;28;20178;-42
2021/04/11 08:08:12;;;;;;;5.32;3.90;;;5.20;99.90;;;;;;5050996;28;20638;-41
2021/04/11 08:11:20;;;;;;;2.85;0.60;;;5.30;99.90;;;;;;5063535;28;20183;-42
2021/04/11 08:14:05;;;;;;;7.57;1.23;;;5.30;99.90;;;;;;5054218;28;20205;-41
2021/04/11 08:16:34;;;;;;;4.57;0.55;;;5.40;99.90;;;;;;5064424;28;20162;-41
2021/04/11 08:19:25;;;;;;;3.05;0.75;;;5.40;99.90;;;;;;5063149;28;20538;-41
2021/04/11 08:21:55;;;;;;;4.50;0.75;;;5.40;99.90;;;;;;5072509;28;20186;-42
2021/04/11 08:24:39;;;;;;;8.57;1.05;;;5.50;99.90;;;;;;5070423;28;20185;-42
2021/04/11 08:27:19;;;;;;;0.73;0.28;;;5.60;99.90;;;;;;5058030;28;20163;-41
2021/04/11 08:30:03;;;;;;;4.18;0.73;;;5.80;99.90;;;;;;5066826;28;20210;-42
2021/04/11 08:32:56;;;;;;;8.48;0.88;;;5.90;99.90;;;;;;5059798;28;20210;-42
2021/04/11 08:35:47;;;;;;;2.35;0.47;;;5.90;99.90;;;;;;5072218;28;20509;-42
2021/04/11 08:38:25;;;;;;;4.80;0.63;;;5.90;99.90;;;;;;5075733;28;20166;-42
2021/04/11 08:41:00;;;;;;;1.85;0.63;;;5.90;99.90;;;;;;5073693;28;20189;-42
2021/04/11 08:43:37;;;;;;;2.63;0.70;;;6.00;99.90;;;;;;5058571;28;20153;-41
2021/04/11 08:46:27;;;;;;;3.15;0.77;;;6.00;99.90;;;;;;5055245;28;20531;-42
2021/04/11 08:49:04;;;;;;;3.67;0.50;;;6.10;99.90;;;;;;5064587;28;20201;-42
2021/04/11 08:51:36;;;;;;;5.30;0.88;;;6.10;99.90;;;;;;5075065;28;20163;-42
2021/04/11 08:54:11;;;;;;;3.90;0.70;;;6.10;99.90;;;;;;5074472;28;20174;-41
2021/04/11 08:56:41;;;;;;;5.63;0.60;;;6.20;99.90;;;;;;5069308;28;20162;-41
2021/04/11 08:59:09;;;;;;;8.13;2.30;;;6.30;99.90;;;;;;5071022;28;20549;-41
2021/04/11 09:02:08;;;;;;;8.48;2.63;;;6.30;99.90;;;;;;5070638;28;20163;-41
2021/04/11 09:04:37;;;;;;;3.45;0.68;;;6.20;99.90;;;;;;5055133;28;20230;-41
2021/04/11 09:07:19;;;;;;;10.02;0.70;;;5.90;99.90;;;;;;5055415;28;20159;-41
2021/04/11 09:09:57;;;;;;;44.65;9.18;;;6.00;99.90;;;;;;5069299;28;20553;-41
2021/04/11 09:12:41;;;;;;;21.98;5.05;;;6.00;99.90;;;;;;5054937;28;20170;-41
2021/04/11 09:15:31;;;;;;;54.50;12.90;;;6.10;99.90;;;;;;5071650;28;20193;-41
2021/04/11 09:18:19;;;;;;;23.75;5.93;;;6.10;99.90;;;;;;5076642;28;20170;-41
2021/04/11 09:21:26;;;;;;;2.88;0.68;;;6.10;99.90;;;;;;5063297;28;20539;-41
2021/04/11 09:24:11;;;;;;;3.58;1.05;;;6.10;99.90;;;;;;5070403;28;20548;-41
2021/04/11 09:26:40;;;;;;;6.18;1.85;;;6.00;99.90;;;;;;5078856;28;20563;-41
2021/04/11 09:29:25;;;;;;;1.13;0.50;;;5.90;99.90;;;;;;5056056;28;20710;-41
2021/04/11 09:32:31;;;;;;;1.55;0.52;;;5.80;99.90;;;;;;5073448;28;20214;-41
2021/04/11 09:35:48;;;;;;;2.88;0.60;;;5.60;99.90;;;;;;5089124;28;20170;-40
2021/04/11 09:38:32;;;;;;;3.42;0.65;;;5.40;99.90;;;;;;5060590;28;20174;-41
2021/04/11 09:41:39;;;;;;;3.10;0.68;;;5.30;99.90;;;;;;5069089;28;20367;-40
2021/04/11 09:44:49;;;;;;;6.88;0.95;;;5.10;99.90;;;;;;5070803;28;20192;-42
2021/04/11 09:47:15;;;;;;;1.60;0.20;;;5.20;99.90;;;;;;5032532;28;20187;-42
2021/04/11 09:49:47;;;;;;;0.60;0.35;;;5.20;99.90;;;;;;5051143;28;20215;-42
2021/04/11 09:52:54;;;;;;;5.38;0.80;;;5.20;99.90;;;;;;5062753;28;20181;-42
2021/04/11 09:56:02;;;;;;;1.63;0.55;;;5.30;99.90;;;;;;5062384;28;20185;-43
2021/04/11 09:58:34;;;;;;;7.07;1.08;;;5.30;99.90;;;;;;5049023;28;20593;-42
2021/04/11 10:01:12;;;;;;;1.33;0.60;;;5.30;99.90;;;;;;5062580;28;20669;-42
2021/04/11 10:04:03;;;;;;;1.50;0.32;;;5.30;99.90;;;;;;5056226;28;20193;-41
2021/04/11 10:06:44;;;;;;;3.13;0.52;;;5.30;99.90;;;;;;5072048;28;20542;-42
2021/04/11 10:09:37;;;;;;;2.45;0.20;;;5.40;99.90;;;;;;5066172;28;20559;-42
2021/04/11 10:12:49;;;;;;;3.35;0.28;;;5.50;99.90;;;;;;5074073;28;20534;-42
2021/04/11 10:15:23;;;;;;;2.08;0.73;;;5.40;99.90;;;;;;5068377;28;20185;-42
2021/04/11 10:18:27;;;;;;;3.67;0.52;;;5.30;99.90;;;;;;5073929;28;20530;-42
2021/04/11 10:21:08;;;;;;;0.65;0.30;;;5.40;99.90;;;;;;5071828;28;20268;-42
2021/04/11 10:23:47;;;;;;;2.97;0.50;;;5.30;99.90;;;;;;5060853;28;20646;-42
2021/04/11 10:26:22;;;;;;;1.10;0.32;;;5.20;99.90;;;;;;5057256;28;20162;-41
2021/04/11 10:28:55;;;;;;;2.38;0.30;;;5.20;99.90;;;;;;5098359;28;20559;-42
2021/04/11 10:31:49;;;;;;;1.90;0.35;;;5.10;99.90;;;;;;5073035;28;20210;-42
2021/04/11 10:34:22;;;;;;;1.45;0.45;;;5.10;99.90;;;;;;5082144;28;20652;-42
2021/04/11 10:37:01;;;;;;;3.35;0.73;;;5.00;99.90;;;;;;5093833;28;20166;-42
2021/04/11 10:39:54;;;;;;;1.05;0.40;;;4.70;99.90;;;;;;5079478;28;20172;-42
2021/04/11 10:42:40;;;;;;;0.90;0.45;;;4.70;99.90;;;;;;5083338;28;20169;-43
2021/04/11 10:45:32;;;;;;;0.77;0.50;;;4.70;99.90;;;;;;5065668;28;20973;-42
2021/04/11 10:48:04;;;;;;;1.33;1.05;;;4.80;99.90;;;;;;5065011;28;20170;-42
2021/04/11 10:50:53;;;;;;;0.75;0.40;;;4.70;99.90;;;;;;5058882;28;20582;-42
2021/04/11 10:53:38;;;;;;;1.10;0.68;;;4.60;99.90;;;;;;5054523;28;20194;-43
2021/04/11 10:56:22;;;;;;;2.22;0.73;;;4.60;99.90;;;;;;5069148;28;20174;-42
2021/04/11 10:58:54;;;;;;;0.77;0.43;;;4.70;99.90;;;;;;5061211;28;20204;-42
2021/04/11 11:01:31;;;;;;;3.60;1.40;;;4.50;99.90;;;;;;5072947;28;20167;-42
2021/04/11 11:04:22;;;;;;;2.20;1.38;;;4.40;99.90;;;;;;5051792;28;20189;-42
2021/04/11 11:07:06;;;;;;;7.35;1.00;;;4.50;99.90;;;;;;5061837;28;20642;-42
2021/04/11 11:09:36;;;;;;;0.50;0.30;;;4.50;99.90;;;;;;5060126;28;20202;-42
2021/04/11 11:12:23;;;;;;;0.85;0.55;;;4.40;99.90;;;;;;5067707;28;20827;-42
2021/04/11 11:15:14;;;;;;;0.52;0.30;;;4.30;99.90;;;;;;5059988;28;20539;-42
2021/04/11 11:18:09;;;;;;;1.27;0.40;;;4.20;99.90;;;;;;5059269;28;20166;-41
2021/04/11 11:20:45;;;;;;;19.77;0.45;;;4.10;99.90;;;;;;5076014;28;20646;-42
2021/04/11 11:23:40;;;;;;;0.32;0.20;;;3.90;99.90;;;;;;5058806;28;20185;-42
2021/04/11 11:26:27;;;;;;;0.22;0.20;;;3.90;99.90;;;;;;5076781;28;20193;-42
2021/04/11 11:29:23;;;;;;;1.58;0.80;;;3.90;99.90;;;;;;5053773;28;20214;-42
2021/04/11 11:32:07;;;;;;;1.23;0.63;;;3.80;99.90;;;;;;5062239;28;20217;-42
2021/04/11 11:34:58;;;;;;;0.40;0.22;;;3.70;99.90;;;;;;5060322;28;20174;-42
2021/04/11 11:37:44;;;;;;;0.28;0.10;;;3.70;99.90;;;;;;5056290;28;20186;-42
2021/04/11 11:40:23;;;;;;;1.83;0.38;;;3.60;99.90;;;;;;5057206;28;20198;-42
2021/04/11 11:43:05;;;;;;;0.10;0.10;;;3.50;99.90;;;;;;5061293;28;20182;-42
2021/04/11 11:45:56;;;;;;;0.28;0.15;;;3.50;99.90;;;;;;5072253;28;20244;-41
2021/04/11 11:48:30;;;;;;;0.20;0.10;;;3.50;99.90;;;;;;5065619;28;20166;-41
2021/04/11 11:51:01;;;;;;;5.03;0.17;;;3.40;99.90;;;;;;5072144;28;20200;-42
2021/04/11 11:53:43;;;;;;;0.10;0.10;;;3.40;99.90;;;;;;5076719;28;20181;-43
2021/04/11 11:56:12;;;;;;;0.03;0.03;;;3.40;99.90;;;;;;5053862;28;20173;-42
2021/04/11 11:59:01;;;;;;;0.80;0.15;;;3.30;99.90;;;;;;5072188;28;20621;-42
2021/04/11 12:01:53;;;;;;;0.40;0.40;;;3.30;99.90;;;;;;5070068;28;20186;-43
2021/04/11 12:04:33;;;;;;;2.50;0.57;;;3.30;99.90;;;;;;5070091;28;20165;-42
2021/04/11 12:07:03;;;;;;;0.10;0.10;;;3.20;99.90;;;;;;5079128;28;20165;-42
2021/04/11 12:09:43;;;;;;;16.92;0.55;;;3.10;99.90;;;;;;5079593;28;20201;-42
2021/04/11 12:12:17;;;;;;;3.17;0.90;;;3.00;99.90;;;;;;5071307;28;20158;-42
2021/04/11 12:14:53;;;;;;;1.27;0.47;;;3.00;99.90;;;;;;5072272;28;20188;-42
2021/04/11 12:17:29;;;;;;;0.30;0.20;;;3.20;99.90;;;;;;5060139;28;20164;-42
2021/04/11 12:20:25;;;;;;;0.00;0.00;;;3.10;99.90;;;;;;5091439;28;20176;-41
2021/04/11 12:23:12;;;;;;;2.22;0.68;;;3.00;99.90;;;;;;5066903;28;20179;-42
2021/04/11 12:25:38;;;;;;;12.82;0.88;;;3.00;99.90;;;;;;5073405;28;20639;-42
2021/04/11 12:28:12;;;;;;;4.07;0.80;;;3.10;99.90;;;;;;5070569;28;20204;-42
2021/04/11 12:30:40;;;;;;;0.15;0.13;;;3.00;99.90;;;;;;5071633;28;20225;-42
2021/04/11 12:33:12;;;;;;;9.00;0.50;;;3.00;99.90;;;;;;5054499;28;20167;-42
2021/04/11 12:36:19;;;;;;;0.52;0.22;;;2.80;99.90;;;;;;5055364;28;20178;-43
2021/04/11 12:38:54;;;;;;;0.05;0.03;;;2.80;99.90;;;;;;5059032;28;20190;-42
2021/04/11 12:41:27;;;;;;;7.07;0.70;;;2.80;99.90;;;;;;5080557;28;20646;-42
2021/04/11 12:44:18;;;;;;;1.13;0.75;;;2.80;99.90;;;;;;5056891;28;20175;-42
2021/04/11 12:47:08;;;;;;;4.82;0.68;;;2.80;99.90;;;;;;5051804;28;20167;-47
2021/04/11 12:49:42;;;;;;;1.75;0.80;;;2.80;99.90;;;;;;5059523;28;20226;-43
2021/04/11 12:52:19;;;;;;;0.75;0.35;;;2.70;99.90;;;;;;5057081;28;20193;-42
2021/04/11 12:54:47;;;;;;;1.05;0.47;;;2.60;99.90;;;;;;5080430;28;20256;-42
2021/04/11 12:57:24;;;;;;;0.20;0.20;;;2.60;99.90;;;;;;5078592;28;20202;-43
2021/04/11 13:00:09;;;;;;;0.90;0.57;;;2.50;99.90;;;;;;5057340;28;20166;-40
2021/04/11 13:03:03;;;;;;;1.23;0.63;;;2.50;99.90;;;;;;5077938;28;20178;-40
2021/04/11 13:05:37;;;;;;;3.03;1.00;;;2.50;99.90;;;;;;5064877;28;20187;-43
2021/04/11 13:08:20;;;;;;;1.35;0.80;;;2.30;99.90;;;;;;5074874;28;20170;-41
2021/04/11 13:11:03;;;;;;;0.32;0.20;;;2.30;99.90;;;;;;5055658;28;20204;-44
2021/04/11 13:13:34;;;;;;;0.35;0.28;;;2.30;99.90;;;;;;5048875;28;20527;-48
2021/04/11 13:16:18;;;;;;;1.52;0.73;;;2.30;99.90;;;;;;5053304;28;20628;-47
2021/04/11 13:19:02;;;;;;;4.63;1.23;;;2.30;99.90;;;;;;5072886;28;20161;-45
2021/04/11 13:21:43;;;;;;;4.57;0.95;;;2.40;99.90;;;;;;5080810;28;20176;-47
2021/04/11 13:24:42;;;;;;;0.50;0.22;;;2.40;99.90;;;;;;5054140;28;20172;-46
2021/04/11 13:27:17;;;;;;;0.32;0.10;;;2.20;99.90;;;;;;5062047;28;20200;-46
2021/04/11 13:29:50;;;;;;;1.30;0.88;;;2.20;99.90;;;;;;5057681;28;20221;-47
2021/04/11 13:32:35;;;;;;;1.52;0.88;;;2.10;99.90;;;;;;5069580;28;20226;-47
2021/04/11 13:35:06;;;;;;;1.02;0.65;;;2.30;99.90;;;;;;5054616;28;20207;-45
2021/04/11 13:37:34;;;;;;;4.68;1.33;;;2.20;99.90;;;;;;5074664;28;20541;-47
2021/04/11 13:40:07;;;;;;;5.78;1.73;;;2.20;99.90;;;;;;5068895;28;20186;-45
2021/04/11 13:42:49;;;;;;;0.80;0.20;;;2.30;99.90;;;;;;5060091;28;20166;-46
2021/04/11 13:45:33;;;;;;;3.08;0.70;;;2.30;99.90;;;;;;5055775;28;20607;-46
2021/04/11 13:48:14;;;;;;;1.52;0.82;;;2.20;99.90;;;;;;5083323;28;20190;-46